createdAt,value
2018-11-21T00:00:57.247Z,0
2018-11-21T00:02:06.146Z,0
2018-11-21T00:03:14.776Z,0
2018-11-21T00:04:23.420Z,0
2018-11-21T00:05:32.050Z,0
2018-11-21T00:06:40.679Z,0
2018-11-21T00:07:49.577Z,0
2018-11-21T00:08:58.207Z,0
2018-11-21T00:10:06.849Z,0
2018-11-21T00:11:15.740Z,0
2018-11-21T00:12:24.382Z,0
2018-11-21T00:13:33.004Z,0
2018-11-21T00:14:41.648Z,0
2018-11-21T00:15:50.277Z,0
2018-11-21T00:16:58.913Z,0
2018-11-21T00:18:07.540Z,0
2018-11-21T00:19:16.182Z,0
2018-11-21T00:20:24.814Z,0
2018-11-21T00:21:33.451Z,0
2018-11-21T00:22:42.075Z,0
2018-11-21T00:23:50.711Z,0
2018-11-21T00:24:59.351Z,0
2018-11-21T00:26:08.250Z,0
2018-11-21T00:27:16.888Z,0
2018-11-21T00:28:25.511Z,0
2018-11-21T00:29:34.150Z,0
2018-11-21T00:30:42.780Z,0
2018-11-21T00:31:51.420Z,0
2018-11-21T00:33:00.039Z,0
2018-11-21T00:34:08.676Z,0
2018-11-21T00:35:17.307Z,0
2018-11-21T00:36:25.951Z,0
2018-11-21T00:37:34.575Z,0
2018-11-21T00:38:43.211Z,0
2018-11-21T00:39:51.844Z,0
2018-11-21T00:41:00.489Z,0
2018-11-21T00:42:09.116Z,0
2018-11-21T00:43:18.007Z,0
2018-11-21T00:44:26.904Z,0
2018-11-21T00:45:35.534Z,0
2018-11-21T00:46:44.180Z,0
2018-11-21T00:47:52.813Z,0
2018-11-21T00:49:01.453Z,0
2018-11-21T00:50:10.619Z,0
2018-11-21T00:51:20.283Z,0
2018-11-21T00:52:29.184Z,0
2018-11-21T00:53:37.821Z,0
2018-11-21T00:54:46.448Z,0
2018-11-21T00:55:55.086Z,0
2018-11-21T00:57:04.363Z,0
2018-11-21T00:58:13.000Z,0
2018-11-21T00:59:21.630Z,0
2018-11-21T01:00:30.266Z,0
2018-11-21T01:01:38.900Z,0
2018-11-21T01:02:47.536Z,0
2018-11-21T01:03:56.176Z,0
2018-11-21T01:05:05.075Z,0
2018-11-21T01:06:13.702Z,0
2018-11-21T01:07:22.334Z,0
2018-11-21T01:08:30.975Z,0
2018-11-21T01:09:39.604Z,0
2018-11-21T01:10:48.236Z,0
2018-11-21T01:11:56.872Z,0
2018-11-21T01:13:05.773Z,0
2018-11-21T01:14:14.670Z,0
2018-11-21T01:15:23.571Z,0
2018-11-21T01:16:32.204Z,0
2018-11-21T01:17:41.098Z,0
2018-11-21T01:18:49.724Z,0
2018-11-21T01:19:58.625Z,0
2018-11-21T01:21:07.262Z,0
2018-11-21T01:22:15.891Z,0
2018-11-21T01:23:24.531Z,0
2018-11-21T01:24:33.167Z,0
2018-11-21T01:25:41.799Z,0
2018-11-21T01:26:50.427Z,0
2018-11-21T01:27:59.064Z,0
2018-11-21T01:29:07.957Z,0
2018-11-21T01:30:16.593Z,0
2018-11-21T01:31:25.216Z,0
2018-11-21T01:32:33.858Z,0
2018-11-21T01:33:42.489Z,0
2018-11-21T01:34:51.127Z,0
2018-11-21T01:35:59.757Z,0
2018-11-21T01:37:08.393Z,0
2018-11-21T01:38:17.028Z,0
2018-11-21T01:39:26.194Z,0
2018-11-21T01:40:34.831Z,0
2018-11-21T01:41:43.460Z,0
2018-11-21T01:42:52.092Z,0
2018-11-21T01:44:00.724Z,0
2018-11-21T01:45:09.371Z,0
2018-11-21T01:46:17.998Z,0
2018-11-21T01:47:26.640Z,0
2018-11-21T01:48:35.278Z,0
2018-11-21T01:49:43.909Z,0
2018-11-21T01:50:52.550Z,0
2018-11-21T01:52:01.181Z,0
2018-11-21T01:53:09.820Z,0
2018-11-21T01:54:18.451Z,0
2018-11-21T01:55:27.087Z,0
2018-11-21T01:56:35.725Z,0
2018-11-21T01:57:44.883Z,0
2018-11-21T01:58:53.520Z,0
2018-11-21T02:00:02.153Z,0
2018-11-21T02:01:11.048Z,0
2018-11-21T02:02:19.679Z,0
2018-11-21T02:03:28.318Z,0
2018-11-21T02:04:36.947Z,0
2018-11-21T02:05:45.849Z,0
2018-11-21T02:06:54.482Z,0
2018-11-21T02:08:03.122Z,0
2018-11-21T02:09:11.753Z,0
2018-11-21T02:10:20.392Z,0
2018-11-21T02:11:29.283Z,0
2018-11-21T02:12:37.928Z,0
2018-11-21T02:13:46.555Z,0
2018-11-21T02:14:55.187Z,0
2018-11-21T02:16:03.819Z,0
2018-11-21T02:17:12.453Z,0
2018-11-21T02:18:21.092Z,0
2018-11-21T02:19:29.732Z,0
2018-11-21T02:20:38.367Z,0
2018-11-21T02:21:46.996Z,0
2018-11-21T02:22:55.633Z,0
2018-11-21T02:24:04.268Z,0
2018-11-21T02:25:12.900Z,0
2018-11-21T02:26:21.529Z,0
2018-11-21T02:27:30.167Z,0
2018-11-21T02:28:38.798Z,0
2018-11-21T02:29:47.440Z,0
2018-11-21T02:30:56.070Z,0
2018-11-21T02:32:04.715Z,0
2018-11-21T02:33:13.613Z,0
2018-11-21T02:34:22.777Z,0
2018-11-21T02:35:31.681Z,0
2018-11-21T02:36:40.316Z,0
2018-11-21T02:37:49.744Z,0
2018-11-21T02:38:58.383Z,0
2018-11-21T02:40:07.027Z,0
2018-11-21T02:41:15.670Z,0
2018-11-21T02:42:24.571Z,0
2018-11-21T02:43:33.205Z,0
2018-11-21T02:44:42.110Z,0
2018-11-21T02:45:50.745Z,0
2018-11-21T02:46:59.649Z,0
2018-11-21T02:48:08.550Z,0
2018-11-21T02:49:17.203Z,0
2018-11-21T02:50:25.843Z,0
2018-11-21T02:51:34.468Z,0
2018-11-21T02:52:43.377Z,0
2018-11-21T02:53:52.014Z,0
2018-11-21T02:55:00.674Z,0
2018-11-21T02:56:09.576Z,0
2018-11-21T02:57:18.216Z,0
2018-11-21T02:58:26.847Z,0
2018-11-21T02:59:35.494Z,0
2018-11-21T03:00:44.121Z,0
2018-11-21T03:01:53.022Z,0
2018-11-21T03:03:01.649Z,0
2018-11-21T03:04:10.291Z,0
2018-11-21T03:05:19.721Z,0
2018-11-21T03:06:28.615Z,0
2018-11-21T03:07:37.236Z,0
2018-11-21T03:08:45.873Z,0
2018-11-21T03:09:54.775Z,0
2018-11-21T03:11:03.681Z,0
2018-11-21T03:12:12.316Z,0
2018-11-21T03:13:27.701Z,0
2018-11-21T03:14:30.126Z,0
2018-11-21T03:15:38.761Z,0
2018-11-21T03:16:47.669Z,0
2018-11-21T03:17:56.571Z,0
2018-11-21T03:19:05.478Z,0
2018-11-21T03:20:14.408Z,0
2018-11-21T03:21:23.323Z,0
2018-11-21T03:22:31.953Z,0
2018-11-21T03:23:40.590Z,0
2018-11-21T03:24:49.226Z,0
2018-11-21T03:25:57.870Z,0
2018-11-21T03:27:07.027Z,0
2018-11-21T03:28:15.657Z,0
2018-11-21T03:29:24.557Z,0
2018-11-21T03:30:33.455Z,0
2018-11-21T03:31:42.370Z,0
2018-11-21T03:32:51.324Z,0
2018-11-21T03:34:02.388Z,0
2018-11-21T03:35:11.041Z,0
2018-11-21T03:36:19.664Z,0
2018-11-21T03:37:28.293Z,0
2018-11-21T03:38:37.209Z,0
2018-11-21T03:39:45.837Z,0
2018-11-21T03:40:54.480Z,0
2018-11-21T03:42:03.112Z,0
2018-11-21T03:43:12.027Z,0
2018-11-21T03:44:20.652Z,0
2018-11-21T03:45:29.288Z,0
2018-11-21T03:46:37.935Z,0
2018-11-21T03:47:47.100Z,0
2018-11-21T03:48:56.006Z,0
2018-11-21T03:50:04.891Z,0
2018-11-21T03:51:13.803Z,0
2018-11-21T03:52:22.962Z,0
2018-11-21T03:53:31.607Z,0
2018-11-21T03:54:40.233Z,0
2018-11-21T03:55:49.404Z,0
2018-11-21T03:56:58.305Z,0
2018-11-21T03:58:06.950Z,0
2018-11-21T03:59:15.837Z,0
2018-11-21T04:00:24.735Z,0
2018-11-21T04:01:33.897Z,0
2018-11-21T04:02:42.810Z,0
2018-11-21T04:03:51.452Z,0
2018-11-21T04:05:00.078Z,0
2018-11-21T04:06:08.709Z,0
2018-11-21T04:07:17.345Z,0
2018-11-21T04:08:25.993Z,0
2018-11-21T04:09:34.623Z,0
2018-11-21T04:10:43.273Z,0
2018-11-21T04:11:51.888Z,0
2018-11-21T04:13:00.862Z,0
2018-11-21T04:14:09.493Z,0
2018-11-21T04:15:18.132Z,0
2018-11-21T04:16:26.764Z,0
2018-11-21T04:17:35.407Z,0
2018-11-21T04:18:44.040Z,0
2018-11-21T04:19:52.938Z,0
2018-11-21T04:21:01.569Z,0
2018-11-21T04:22:10.204Z,0
2018-11-21T04:23:19.381Z,0
2018-11-21T04:24:28.017Z,0
2018-11-21T04:25:36.915Z,0
2018-11-21T04:26:45.799Z,0
2018-11-21T04:27:54.438Z,0
2018-11-21T04:29:03.074Z,0
2018-11-21T04:30:11.719Z,0
2018-11-21T04:31:20.350Z,0
2018-11-21T04:32:28.995Z,0
2018-11-21T04:33:37.624Z,0
2018-11-21T04:34:46.559Z,0
2018-11-21T04:35:55.447Z,0
2018-11-21T04:37:04.083Z,0
2018-11-21T04:38:12.721Z,0
2018-11-21T04:39:21.368Z,0
2018-11-21T04:40:30.277Z,0
2018-11-21T04:41:38.905Z,0
2018-11-21T04:42:47.807Z,0
2018-11-21T04:43:56.971Z,0
2018-11-21T04:45:05.894Z,0
2018-11-21T04:46:14.529Z,0
2018-11-21T04:47:23.163Z,0
2018-11-21T04:48:31.795Z,0
2018-11-21T04:49:40.452Z,0
2018-11-21T04:50:49.073Z,0
2018-11-21T04:51:57.713Z,0
2018-11-21T04:53:06.348Z,0
2018-11-21T04:54:15.263Z,0
2018-11-21T04:55:24.448Z,0
2018-11-21T04:56:33.091Z,0
2018-11-21T04:57:41.729Z,0
2018-11-21T04:58:50.623Z,0
2018-11-21T04:59:59.261Z,0
2018-11-21T05:01:07.893Z,0
2018-11-21T05:02:16.530Z,0
2018-11-21T05:03:25.161Z,0
2018-11-21T05:04:33.794Z,0
2018-11-21T05:05:42.432Z,0
2018-11-21T05:06:51.070Z,0
2018-11-21T05:07:59.967Z,0
2018-11-21T05:09:08.603Z,0
2018-11-21T05:10:17.497Z,0
2018-11-21T05:11:26.138Z,0
2018-11-21T05:12:35.027Z,0
2018-11-21T05:13:43.665Z,0
2018-11-21T05:14:52.300Z,0
2018-11-21T05:16:00.939Z,0
2018-11-21T05:17:09.577Z,0
2018-11-21T05:18:18.211Z,0
2018-11-21T05:19:27.100Z,0
2018-11-21T05:20:35.996Z,0
2018-11-21T05:21:44.635Z,0
2018-11-21T05:22:53.269Z,0
2018-11-21T05:24:01.904Z,0
2018-11-21T05:25:10.532Z,0
2018-11-21T05:26:19.435Z,0
2018-11-21T05:27:28.072Z,0
2018-11-21T05:28:36.705Z,0
2018-11-21T05:29:45.592Z,0
2018-11-21T05:30:54.498Z,0
2018-11-21T05:32:03.133Z,0
2018-11-21T05:33:11.769Z,0
2018-11-21T05:34:20.402Z,0
2018-11-21T05:35:29.041Z,0
2018-11-21T05:36:38.212Z,0
2018-11-21T05:37:46.850Z,0
2018-11-21T05:38:55.758Z,0
2018-11-21T05:40:04.906Z,0
2018-11-21T05:41:13.546Z,0
2018-11-21T05:42:22.180Z,0
2018-11-21T05:43:30.817Z,0
2018-11-21T05:44:39.454Z,0
2018-11-21T05:45:48.093Z,0
2018-11-21T05:46:56.767Z,0
2018-11-21T05:48:05.355Z,0
2018-11-21T05:49:14.257Z,0
2018-11-21T05:50:23.153Z,0
2018-11-21T05:51:31.791Z,0
2018-11-21T05:52:40.423Z,0
2018-11-21T05:53:49.060Z,0
2018-11-21T05:54:57.955Z,0
2018-11-21T05:56:06.595Z,0
2018-11-21T05:57:15.228Z,0
2018-11-21T05:58:24.117Z,0
2018-11-21T05:59:32.751Z,0
2018-11-21T06:00:41.381Z,0
2018-11-21T06:01:50.021Z,0
2018-11-21T06:02:58.917Z,0
2018-11-21T06:04:07.556Z,0
2018-11-21T06:05:16.720Z,0
2018-11-21T06:06:25.364Z,0
2018-11-21T06:07:34.000Z,0
2018-11-21T06:08:42.903Z,0
2018-11-21T06:09:51.539Z,0
2018-11-21T06:11:00.177Z,0
2018-11-21T06:12:08.809Z,0
2018-11-21T06:13:17.708Z,0
2018-11-21T06:14:26.608Z,0
2018-11-21T06:15:35.242Z,0
2018-11-21T06:16:43.878Z,0
2018-11-21T06:17:52.511Z,0
2018-11-21T06:19:01.145Z,0
2018-11-21T06:20:09.774Z,0
2018-11-21T06:21:18.416Z,0
2018-11-21T06:22:27.042Z,0
2018-11-21T06:23:35.678Z,0
2018-11-21T06:24:44.575Z,0
2018-11-21T06:25:53.212Z,0
2018-11-21T06:27:01.844Z,0
2018-11-21T06:28:10.482Z,0
2018-11-21T06:29:19.385Z,0
2018-11-21T06:30:28.020Z,0
2018-11-21T06:31:36.919Z,0
2018-11-21T06:32:45.559Z,0
2018-11-21T06:33:54.453Z,0
2018-11-21T06:35:03.083Z,0
2018-11-21T06:36:11.716Z,0
2018-11-21T06:37:20.350Z,0
2018-11-21T06:38:28.989Z,0
2018-11-21T06:39:37.880Z,0
2018-11-21T06:40:46.513Z,0
2018-11-21T06:41:55.149Z,0
2018-11-21T06:43:04.062Z,0
2018-11-21T06:44:12.687Z,0
2018-11-21T06:45:21.324Z,0
2018-11-21T06:46:29.970Z,0
2018-11-21T06:47:38.877Z,0
2018-11-21T06:48:47.776Z,0
2018-11-21T06:49:56.933Z,0
2018-11-21T06:51:05.830Z,0
2018-11-21T06:52:14.460Z,0
2018-11-21T06:53:23.102Z,0
2018-11-21T06:54:31.736Z,5
2018-11-21T06:55:40.373Z,5
2018-11-21T06:56:49.263Z,5
2018-11-21T06:57:57.911Z,5
2018-11-21T06:59:06.537Z,5
2018-11-21T07:00:15.175Z,5
2018-11-21T07:01:23.800Z,5
2018-11-21T07:02:32.442Z,5
2018-11-21T07:03:41.079Z,5
2018-11-21T07:04:49.708Z,10
2018-11-21T07:05:58.334Z,10
2018-11-21T07:07:06.975Z,10
2018-11-21T07:08:15.613Z,10
2018-11-21T07:09:24.247Z,10
2018-11-21T07:10:32.883Z,10
2018-11-21T07:11:41.508Z,15
2018-11-21T07:12:50.150Z,15
2018-11-21T07:13:58.777Z,15
2018-11-21T07:15:07.421Z,15
2018-11-21T07:16:16.047Z,15
2018-11-21T07:17:24.681Z,20
2018-11-21T07:18:33.313Z,20
2018-11-21T07:19:41.954Z,20
2018-11-21T07:20:50.578Z,20
2018-11-21T07:21:59.475Z,25
2018-11-21T07:23:08.108Z,25
2018-11-21T07:24:16.750Z,25
2018-11-21T07:25:25.384Z,25
2018-11-21T07:26:34.019Z,30
2018-11-21T07:27:42.647Z,30
2018-11-21T07:28:51.281Z,30
2018-11-21T07:29:59.922Z,30
2018-11-21T07:31:08.562Z,35
2018-11-21T07:32:17.202Z,35
2018-11-21T07:33:25.827Z,35
2018-11-21T07:34:34.472Z,35
2018-11-21T07:35:43.102Z,40
2018-11-21T07:36:51.741Z,40
2018-11-21T07:38:00.369Z,40
2018-11-21T07:39:09.279Z,40
2018-11-21T07:40:17.909Z,40
2018-11-21T07:41:26.543Z,45
2018-11-21T07:42:35.175Z,45
2018-11-21T07:43:43.810Z,45
2018-11-21T07:44:52.715Z,45
2018-11-21T07:46:01.350Z,50
2018-11-21T07:47:09.986Z,50
2018-11-21T07:48:25.034Z,45
2018-11-21T07:49:33.669Z,50
2018-11-21T07:50:42.304Z,50
2018-11-21T07:51:50.943Z,50
2018-11-21T07:52:59.568Z,50
2018-11-21T07:54:08.202Z,55
2018-11-21T07:55:16.837Z,55
2018-11-21T07:56:25.473Z,55
2018-11-21T07:57:34.103Z,55
2018-11-21T07:58:42.741Z,55
2018-11-21T07:59:54.478Z,60
2018-11-21T08:01:00.012Z,60
2018-11-21T08:02:08.642Z,60
2018-11-21T08:03:17.277Z,60
2018-11-21T08:04:25.912Z,65
2018-11-21T08:05:34.543Z,65
2018-11-21T08:06:43.180Z,65
2018-11-21T08:07:52.083Z,65
2018-11-21T08:09:00.991Z,65
2018-11-21T08:10:09.622Z,70
2018-11-21T08:11:18.260Z,70
2018-11-21T08:12:27.156Z,70
2018-11-21T08:13:36.054Z,70
2018-11-21T08:14:44.684Z,75
2018-11-21T08:15:53.324Z,75
2018-11-21T08:17:01.964Z,75
2018-11-21T08:18:10.593Z,75
2018-11-21T08:19:19.222Z,75
2018-11-21T08:20:27.865Z,75
2018-11-21T08:21:36.500Z,75
2018-11-21T08:22:45.400Z,80
2018-11-21T08:23:58.138Z,80
2018-11-21T08:25:07.030Z,80
2018-11-21T08:26:15.663Z,80
2018-11-21T08:27:24.299Z,80
2018-11-21T08:28:33.213Z,80
2018-11-21T08:29:41.846Z,85
2018-11-21T08:30:50.491Z,85
2018-11-21T08:31:59.112Z,85
2018-11-21T08:33:07.750Z,85
2018-11-21T08:34:16.653Z,85
2018-11-21T08:35:25.290Z,90
2018-11-21T08:36:33.926Z,85
2018-11-21T08:37:42.565Z,85
2018-11-21T08:38:51.202Z,85
2018-11-21T08:39:59.834Z,90
2018-11-21T08:41:08.463Z,90
2018-11-21T08:42:17.363Z,90
2018-11-21T08:43:26.007Z,90
2018-11-21T08:44:34.645Z,90
2018-11-21T08:45:43.280Z,90
2018-11-21T08:46:51.904Z,90
2018-11-21T08:48:00.550Z,95
2018-11-21T08:49:09.454Z,95
2018-11-21T08:50:18.087Z,95
2018-11-21T08:51:26.712Z,95
2018-11-21T08:52:35.624Z,95
2018-11-21T08:53:44.257Z,100
2018-11-21T08:54:52.897Z,100
2018-11-21T08:56:01.522Z,100
2018-11-21T08:57:10.158Z,100
2018-11-21T08:58:19.066Z,105
2018-11-21T08:59:27.706Z,105
2018-11-21T09:00:36.343Z,105
2018-11-21T09:01:45.235Z,110
2018-11-21T09:02:53.874Z,110
2018-11-21T09:04:02.506Z,105
2018-11-21T09:05:11.155Z,105
2018-11-21T09:06:19.781Z,100
2018-11-21T09:07:28.422Z,105
2018-11-21T09:08:37.052Z,115
2018-11-21T09:09:45.699Z,110
2018-11-21T09:10:54.321Z,115
2018-11-21T09:12:02.960Z,110
2018-11-21T09:13:11.596Z,105
2018-11-21T09:14:20.772Z,115
2018-11-21T09:15:29.672Z,120
2018-11-21T09:16:38.303Z,110
2018-11-21T09:17:46.937Z,110
2018-11-21T09:18:55.575Z,120
2018-11-21T09:20:04.220Z,115
2018-11-21T09:21:12.852Z,120
2018-11-21T09:22:21.503Z,120
2018-11-21T09:23:30.118Z,120
2018-11-21T09:24:38.764Z,120
2018-11-21T09:25:47.394Z,130
2018-11-21T09:26:56.032Z,115
2018-11-21T09:28:04.657Z,120
2018-11-21T09:29:13.831Z,120
2018-11-21T09:30:22.465Z,115
2018-11-21T09:31:31.368Z,120
2018-11-21T09:32:39.997Z,110
2018-11-21T09:33:48.894Z,115
2018-11-21T09:34:57.533Z,120
2018-11-21T09:36:06.174Z,125
2018-11-21T09:37:14.815Z,120
2018-11-21T09:38:23.438Z,120
2018-11-21T09:39:32.077Z,115
2018-11-21T09:40:40.714Z,125
2018-11-21T09:41:49.602Z,125
2018-11-21T09:42:58.249Z,120
2018-11-21T09:44:06.880Z,125
2018-11-21T09:45:15.518Z,125
2018-11-21T09:46:24.144Z,120
2018-11-21T09:47:32.790Z,125
2018-11-21T09:48:41.426Z,130
2018-11-21T09:49:50.064Z,125
2018-11-21T09:50:58.690Z,120
2018-11-21T09:52:07.329Z,120
2018-11-21T09:53:15.973Z,120
2018-11-21T09:54:24.609Z,115
2018-11-21T09:55:33.523Z,120
2018-11-21T09:56:42.153Z,130
2018-11-21T09:57:50.798Z,120
2018-11-21T09:58:59.424Z,130
2018-11-21T10:00:08.069Z,130
2018-11-21T10:01:16.962Z,125
2018-11-21T10:02:25.604Z,125
2018-11-21T10:03:34.235Z,120
2018-11-21T10:04:42.880Z,130
2018-11-21T10:05:51.507Z,125
2018-11-21T10:07:00.144Z,110
2018-11-21T10:08:08.782Z,110
2018-11-21T10:09:17.433Z,115
2018-11-21T10:10:26.136Z,120
2018-11-21T10:11:34.803Z,135
2018-11-21T10:12:43.503Z,140
2018-11-21T10:13:52.587Z,135
2018-11-21T10:15:01.238Z,135
2018-11-21T10:16:09.869Z,130
2018-11-21T10:17:18.514Z,135
2018-11-21T10:18:27.141Z,130
2018-11-21T10:19:35.783Z,140
2018-11-21T10:20:44.413Z,140
2018-11-21T10:21:53.058Z,125
2018-11-21T10:23:01.684Z,115
2018-11-21T10:24:10.327Z,120
2018-11-21T10:25:18.966Z,125
2018-11-21T10:26:27.878Z,105
2018-11-21T10:27:36.506Z,100
2018-11-21T10:28:45.408Z,100
2018-11-21T10:29:54.049Z,105
2018-11-21T10:31:02.690Z,120
2018-11-21T10:32:11.854Z,125
2018-11-21T10:33:20.481Z,100
2018-11-21T10:34:29.446Z,95
2018-11-21T10:35:38.346Z,110
2018-11-21T10:36:46.992Z,120
2018-11-21T10:37:55.622Z,135
2018-11-21T10:39:04.264Z,140
2018-11-21T10:40:12.900Z,145
2018-11-21T10:41:21.804Z,125
2018-11-21T10:42:30.433Z,110
2018-11-21T10:43:39.334Z,120
2018-11-21T10:44:47.968Z,135
2018-11-21T10:45:56.613Z,135
2018-11-21T10:47:05.247Z,110
2018-11-21T10:48:13.889Z,95
2018-11-21T10:49:22.520Z,95
2018-11-21T10:50:31.507Z,110
2018-11-21T10:51:40.970Z,125
2018-11-21T10:52:49.727Z,140
2018-11-21T10:53:58.368Z,140
2018-11-21T10:55:07.343Z,145
2018-11-21T10:56:16.251Z,150
2018-11-21T10:57:24.900Z,155
2018-11-21T10:58:33.995Z,155
2018-11-21T10:59:43.034Z,160
2018-11-21T11:00:51.676Z,160
2018-11-21T11:02:00.313Z,160
2018-11-21T11:03:10.459Z,155
2018-11-21T11:04:19.856Z,150
2018-11-21T11:05:30.303Z,145
2018-11-21T11:06:40.437Z,140
2018-11-21T11:07:49.157Z,145
2018-11-21T11:08:57.792Z,150
2018-11-21T11:10:06.439Z,155
2018-11-21T11:11:15.340Z,150
2018-11-21T11:12:24.568Z,145
2018-11-21T11:13:35.313Z,130
2018-11-21T11:14:44.414Z,125
2018-11-21T11:15:53.055Z,125
2018-11-21T11:17:01.694Z,130
2018-11-21T11:18:10.336Z,140
2018-11-21T11:19:18.969Z,125
2018-11-21T11:20:27.886Z,115
2018-11-21T11:21:36.518Z,105
2018-11-21T11:22:45.158Z,105
2018-11-21T11:23:54.058Z,105
2018-11-21T11:25:02.695Z,115
2018-11-21T11:26:11.591Z,115
2018-11-21T11:27:20.224Z,125
2018-11-21T11:28:28.868Z,135
2018-11-21T11:29:37.511Z,130
2018-11-21T11:30:46.143Z,135
2018-11-21T11:31:55.047Z,140
2018-11-21T11:33:03.689Z,140
2018-11-21T11:34:12.325Z,145
2018-11-21T11:35:20.961Z,145
2018-11-21T11:36:29.603Z,140
2018-11-21T11:37:38.231Z,140
2018-11-21T11:38:46.879Z,120
2018-11-21T11:39:55.514Z,110
2018-11-21T11:41:04.162Z,110
2018-11-21T11:42:12.797Z,120
2018-11-21T11:43:21.435Z,110
2018-11-21T11:44:30.329Z,100
2018-11-21T11:45:39.228Z,100
2018-11-21T11:46:48.138Z,95
2018-11-21T11:47:56.769Z,90
2018-11-21T11:49:05.413Z,90
2018-11-21T11:50:14.959Z,80
2018-11-21T11:51:23.605Z,80
2018-11-21T11:52:32.248Z,75
2018-11-21T11:53:40.887Z,70
2018-11-21T11:54:49.522Z,70
2018-11-21T11:55:58.166Z,75
2018-11-21T11:57:06.799Z,75
2018-11-21T11:58:15.438Z,80
2018-11-21T11:59:24.328Z,90
2018-11-21T12:00:32.974Z,90
2018-11-21T12:01:41.615Z,85
2018-11-21T12:02:50.254Z,85
2018-11-21T12:04:00.314Z,90
2018-11-21T12:05:08.935Z,95
2018-11-21T12:06:17.892Z,95
2018-11-21T12:07:26.801Z,95
2018-11-21T12:08:35.447Z,100
2018-11-21T12:09:44.077Z,110
2018-11-21T12:10:52.983Z,110
2018-11-21T12:12:04.919Z,120
2018-11-21T12:13:14.335Z,130
2018-11-21T12:14:22.963Z,135
2018-11-21T12:15:31.871Z,135
2018-11-21T12:16:40.506Z,130
2018-11-21T12:17:49.610Z,125
2018-11-21T12:18:58.565Z,120
2018-11-21T12:20:07.336Z,120
2018-11-21T12:21:16.044Z,120
2018-11-21T12:22:25.795Z,115
2018-11-21T12:23:34.483Z,105
2018-11-21T12:24:43.120Z,95
2018-11-21T12:25:51.787Z,100
2018-11-21T12:27:00.417Z,100
2018-11-21T12:28:09.066Z,100
2018-11-21T12:29:17.700Z,105
2018-11-21T12:30:26.374Z,100
2018-11-21T12:31:34.998Z,95
2018-11-21T12:32:43.726Z,95
2018-11-21T12:33:52.368Z,95
2018-11-21T12:35:01.377Z,90
2018-11-21T12:36:10.014Z,85
2018-11-21T12:37:18.653Z,75
2018-11-21T12:38:27.309Z,70
2018-11-21T12:39:36.395Z,70
2018-11-21T12:40:45.036Z,75
2018-11-21T12:41:53.675Z,75
2018-11-21T12:43:02.308Z,75
2018-11-21T12:44:10.952Z,70
2018-11-21T12:45:19.595Z,70
2018-11-21T12:46:28.229Z,75
2018-11-21T12:47:36.866Z,75
2018-11-21T12:48:45.507Z,75
2018-11-21T12:49:54.156Z,70
2018-11-21T12:51:03.044Z,65
2018-11-21T12:52:11.684Z,60
2018-11-21T12:53:20.317Z,60
2018-11-21T12:54:28.961Z,55
2018-11-21T12:55:37.598Z,55
2018-11-21T12:56:46.233Z,55
2018-11-21T12:57:54.868Z,55
2018-11-21T12:59:03.510Z,55
2018-11-21T13:00:12.150Z,55
2018-11-21T13:01:20.791Z,55
2018-11-21T13:02:29.691Z,55
2018-11-21T13:03:38.323Z,50
2018-11-21T13:04:46.964Z,45
2018-11-21T13:05:55.613Z,45
2018-11-21T13:07:04.774Z,45
2018-11-21T13:08:13.402Z,45
2018-11-21T13:09:22.307Z,45
2018-11-21T13:10:31.257Z,40
2018-11-21T13:11:39.900Z,40
2018-11-21T13:12:48.795Z,40
2018-11-21T13:13:57.434Z,35
2018-11-21T13:15:06.073Z,35
2018-11-21T13:16:14.727Z,35
2018-11-21T13:17:23.365Z,35
2018-11-21T13:18:31.996Z,35
2018-11-21T13:19:40.634Z,35
2018-11-21T13:20:49.268Z,35
2018-11-21T13:21:57.917Z,40
2018-11-21T13:23:06.549Z,35
2018-11-21T13:24:15.186Z,40
2018-11-21T13:25:23.822Z,40
2018-11-21T13:26:32.463Z,40
2018-11-21T13:27:41.101Z,40
2018-11-21T13:28:49.739Z,40
2018-11-21T13:29:58.383Z,40
2018-11-21T13:31:07.016Z,40
2018-11-21T13:32:15.662Z,40
2018-11-21T13:33:24.303Z,45
2018-11-21T13:34:32.939Z,45
2018-11-21T13:35:41.579Z,40
2018-11-21T13:36:50.214Z,40
2018-11-21T13:37:58.852Z,40
2018-11-21T13:39:07.756Z,40
2018-11-21T13:40:16.395Z,40
2018-11-21T13:41:25.028Z,40
2018-11-21T13:42:33.667Z,40
2018-11-21T13:43:42.306Z,40
2018-11-21T13:44:50.949Z,40
2018-11-21T13:45:59.601Z,40
2018-11-21T13:47:08.508Z,40
2018-11-21T13:48:17.142Z,35
2018-11-21T13:49:26.044Z,35
2018-11-21T13:50:40.797Z,40
2018-11-21T13:51:49.435Z,45
2018-11-21T13:52:58.075Z,50
2018-11-21T13:54:06.721Z,55
2018-11-21T13:55:15.350Z,55
2018-11-21T13:56:23.987Z,50
2018-11-21T13:57:32.885Z,45
2018-11-21T13:58:41.662Z,45
2018-11-21T13:59:50.309Z,40
2018-11-21T14:00:58.939Z,40
2018-11-21T14:02:07.582Z,40
2018-11-21T14:03:16.216Z,35
2018-11-21T14:04:24.856Z,35
2018-11-21T14:05:33.489Z,35
2018-11-21T14:06:42.129Z,40
2018-11-21T14:07:50.767Z,45
2018-11-21T14:08:59.672Z,45
2018-11-21T14:10:08.310Z,45
2018-11-21T14:11:16.948Z,45
2018-11-21T14:12:25.587Z,45
2018-11-21T14:13:34.218Z,50
2018-11-21T14:14:42.855Z,50
2018-11-21T14:15:51.492Z,50
2018-11-21T14:17:00.139Z,50
2018-11-21T14:18:08.766Z,50
2018-11-21T14:19:17.411Z,50
2018-11-21T14:20:26.042Z,45
2018-11-21T14:21:34.683Z,45
2018-11-21T14:22:43.315Z,40
2018-11-21T14:23:51.953Z,35
2018-11-21T14:25:00.850Z,35
2018-11-21T14:26:09.492Z,35
2018-11-21T14:27:18.392Z,35
2018-11-21T14:28:27.035Z,35
2018-11-21T14:29:35.661Z,30
2018-11-21T14:30:44.301Z,25
2018-11-21T14:31:52.938Z,20
2018-11-21T14:33:01.573Z,20
2018-11-21T14:34:10.216Z,20
2018-11-21T14:35:19.112Z,15
2018-11-21T14:36:27.758Z,15
2018-11-21T14:37:36.392Z,15
2018-11-21T14:38:45.035Z,15
2018-11-21T14:39:53.927Z,15
2018-11-21T14:41:02.572Z,15
2018-11-21T14:42:11.210Z,15
2018-11-21T14:43:19.848Z,15
2018-11-21T14:44:28.476Z,15
2018-11-21T14:45:37.121Z,10
2018-11-21T14:46:45.756Z,10
2018-11-21T14:47:54.396Z,10
2018-11-21T14:49:03.038Z,10
2018-11-21T14:50:11.665Z,10
2018-11-21T14:51:20.305Z,10
2018-11-21T14:52:29.198Z,10
2018-11-21T14:53:38.120Z,5
2018-11-21T14:54:47.003Z,5
2018-11-21T14:55:55.635Z,5
2018-11-21T14:57:04.266Z,5
2018-11-21T14:58:12.908Z,5
2018-11-21T14:59:21.800Z,5
2018-11-21T15:00:30.453Z,5
2018-11-21T15:01:39.090Z,5
2018-11-21T15:02:48.015Z,5
2018-11-21T15:03:56.650Z,5
2018-11-21T15:05:05.282Z,5
2018-11-21T15:06:13.916Z,5
2018-11-21T15:07:22.551Z,5
2018-11-21T15:08:31.197Z,5
2018-11-21T15:09:39.828Z,5
2018-11-21T15:10:48.467Z,5
2018-11-21T15:11:57.092Z,5
2018-11-21T15:13:05.742Z,5
2018-11-21T15:14:14.372Z,5
2018-11-21T15:15:23.015Z,0
2018-11-21T15:16:31.645Z,0
2018-11-21T15:17:40.297Z,0
2018-11-21T15:18:48.929Z,0
2018-11-21T15:19:57.569Z,0
2018-11-21T15:21:06.195Z,5
2018-11-21T15:22:14.833Z,5
2018-11-21T15:23:23.476Z,5
2018-11-21T15:24:32.124Z,5
2018-11-21T15:25:40.758Z,0
2018-11-21T15:26:49.387Z,0
2018-11-21T15:27:58.029Z,0
2018-11-21T15:29:06.663Z,0
2018-11-21T15:30:15.307Z,0
2018-11-21T15:31:23.934Z,0
2018-11-21T15:32:32.568Z,0
2018-11-21T15:33:41.204Z,0
2018-11-21T15:34:49.845Z,0
2018-11-21T15:35:58.477Z,0
2018-11-21T15:37:07.116Z,0
2018-11-21T15:38:16.014Z,0
2018-11-21T15:39:24.654Z,0
2018-11-21T15:40:33.548Z,0
2018-11-21T15:41:42.185Z,0
2018-11-21T15:42:51.088Z,0
2018-11-21T15:43:59.986Z,0
2018-11-21T15:45:08.628Z,0
2018-11-21T15:46:17.269Z,0
2018-11-21T15:47:26.174Z,0
2018-11-21T15:48:34.807Z,0
2018-11-21T15:49:43.708Z,0
2018-11-21T15:50:52.345Z,0
2018-11-21T15:52:06.071Z,0
2018-11-21T15:53:15.237Z,0
2018-11-21T15:54:23.878Z,0
2018-11-21T15:55:32.512Z,0
2018-11-21T15:56:41.152Z,0
2018-11-21T15:57:49.782Z,0
2018-11-21T15:58:58.420Z,0
2018-11-21T16:00:07.056Z,0
2018-11-21T16:01:15.695Z,0
2018-11-21T16:02:24.598Z,0
2018-11-21T16:03:33.496Z,0
2018-11-21T16:04:47.954Z,0
2018-11-21T16:05:50.770Z,0
2018-11-21T16:06:59.417Z,0
2018-11-21T16:08:08.055Z,0
2018-11-21T16:09:16.945Z,0
2018-11-21T16:10:25.859Z,0
2018-11-21T16:11:34.499Z,0
2018-11-21T16:12:43.131Z,0
2018-11-21T16:13:51.770Z,0
2018-11-21T16:15:00.403Z,0
2018-11-21T16:16:09.046Z,0
2018-11-21T16:17:17.680Z,0
2018-11-21T16:18:26.578Z,0
2018-11-21T16:19:35.214Z,0
2018-11-21T16:20:43.845Z,0
2018-11-21T16:21:52.491Z,0
2018-11-21T16:23:01.126Z,0
2018-11-21T16:24:10.026Z,0
2018-11-21T16:25:18.655Z,0
2018-11-21T16:26:27.614Z,0
2018-11-21T16:27:36.249Z,0
2018-11-21T16:28:44.884Z,0
2018-11-21T16:29:53.514Z,0
2018-11-21T16:31:02.158Z,0
2018-11-21T16:32:10.794Z,0